Time;durP1;ratioP1;P1;durP2;ratioP2;P2;SDS_P1;SDS_P2;PMS_P1;PMS_P2;Temp;Humidity;BMP_temperature;BMP_pressure;BME280_temperature;BME280_humidity;BME280_pressure;Samples;Min_cycle;Max_cycle;Signal;HPM_P1;HPM_P2
2022/11/24 00:01:26;;;;;;;2.67;0.60;;;;;;;7.90;99.05;100294.13;5033267;28;96590;-31
2022/11/24 00:03:57;;;;;;;1.20;0.70;;;;;;;7.90;98.81;100300.38;5033293;28;96777;-32
2022/11/24 00:06:24;;;;;;;10.05;1.08;;;;;;;7.90;99.00;100300.38;5014499;28;100962;-31
2022/11/24 00:08:50;;;;;;;6.75;0.50;;;;;;;7.89;98.70;100298.66;5014745;28;100824;-31
2022/11/24 00:11:18;;;;;;;0.52;0.47;;;;;;;7.90;98.66;100308.47;5032854;28;96575;-31
2022/11/24 00:13:44;;;;;;;1.48;0.55;;;;;;;7.88;98.39;100294.22;5014877;28;96801;-31
2022/11/24 00:16:11;;;;;;;5.82;0.85;;;;;;;7.86;98.49;100291.63;5032616;28;98541;-30
2022/11/24 00:18:38;;;;;;;0.55;0.25;;;;;;;7.82;98.24;100281.97;5014659;28;100797;-30
2022/11/24 00:21:04;;;;;;;3.40;0.73;;;;;;;7.81;97.99;100290.16;5014694;28;96710;-30
2022/11/24 00:23:29;;;;;;;11.65;1.02;;;;;;;7.82;98.13;100302.69;5033211;28;96907;-31
2022/11/24 00:25:54;;;;;;;2.20;0.93;;;;;;;7.83;98.06;100307.09;5032364;27;97813;-31
2022/11/24 00:28:20;;;;;;;3.75;1.20;;;;;;;7.81;98.01;100306.31;5032205;27;97776;-31
2022/11/24 00:30:46;;;;;;;3.05;0.73;;;;;;;7.84;97.96;100306.13;5032053;28;96550;-31
2022/11/24 00:33:12;;;;;;;4.93;0.90;;;;;;;7.83;97.85;100305.28;5032891;28;96757;-30
2022/11/24 00:35:37;;;;;;;3.78;1.08;;;;;;;7.85;97.78;100302.50;5014401;28;98222;-30
2022/11/24 00:38:02;;;;;;;0.75;0.43;;;;;;;7.84;97.42;100306.13;5032444;28;98581;-30
2022/11/24 00:40:28;;;;;;;2.85;0.65;;;;;;;7.83;97.36;100310.66;5032789;28;96644;-31
2022/11/24 00:42:53;;;;;;;1.45;0.70;;;;;;;7.85;97.37;100314.13;5032740;28;96781;-31
2022/11/24 00:45:24;;;;;;;0.85;0.60;;;;;;;7.85;96.97;100307.88;5032249;28;97792;-32
2022/11/24 00:47:50;;;;;;;4.88;1.08;;;;;;;7.83;96.92;100312.50;5032809;28;97808;-31
2022/11/24 00:50:15;;;;;;;0.47;0.43;;;;;;;7.87;96.85;100316.75;5032665;28;96694;-30
2022/11/24 00:52:41;;;;;;;0.50;0.30;;;;;;;7.84;96.86;100317.81;5032399;28;96847;-30
2022/11/24 00:55:06;;;;;;;3.78;0.80;;;;;;;7.84;96.86;100322.31;5031847;28;97432;-30
2022/11/24 00:57:33;;;;;;;2.22;0.70;;;;;;;7.84;96.92;100322.31;5032293;28;97814;-30
2022/11/24 00:59:59;;;;;;;6.53;1.30;;;;;;;7.85;97.09;100324.94;5014000;28;96717;-31
2022/11/24 01:02:25;;;;;;;1.48;0.57;;;;;;;7.85;96.82;100318.66;5032533;28;96828;-30
2022/11/24 01:04:50;;;;;;;1.10;0.68;;;;;;;7.85;96.80;100321.38;5013910;28;101248;-30
2022/11/24 01:07:16;;;;;;;1.50;0.52;;;;;;;7.88;96.96;100329.28;5032367;28;97763;-31
2022/11/24 01:09:44;;;;;;;1.98;0.75;;;;;;;7.87;96.96;100332.94;5032422;28;96699;-30
2022/11/24 01:12:09;;;;;;;1.58;0.82;;;;;;;7.89;96.85;100333.72;5032062;28;96821;-30
2022/11/24 01:14:35;;;;;;;1.67;0.60;;;;;;;7.92;96.57;100325.44;5031933;28;97422;-30
2022/11/24 01:17:00;;;;;;;8.32;0.90;;;;;;;7.94;96.70;100334.31;5031490;28;99333;-30
2022/11/24 01:19:26;;;;;;;1.05;0.28;;;;;;;7.94;96.88;100339.72;5031856;28;96628;-31
2022/11/24 01:21:51;;;;;;;3.38;0.57;;;;;;;7.95;96.85;100345.97;5032133;28;96853;-31
2022/11/24 01:24:17;;;;;;;5.90;1.27;;;;;;;7.96;96.81;100342.28;5031723;28;97871;-31
2022/11/24 01:26:43;;;;;;;0.77;0.32;;;;;;;7.92;96.64;100338.91;5031984;28;97975;-32
2022/11/24 01:29:09;;;;;;;1.80;0.68;;;;;;;7.94;96.94;100323.53;5013660;28;96649;-30
2022/11/24 01:31:35;;;;;;;4.35;0.73;;;;;;;7.96;96.83;100335.09;5013876;28;96854;-30
2022/11/24 01:34:01;;;;;;;0.80;0.47;;;;;;;7.95;96.60;100333.34;5013557;28;101175;-31
2022/11/24 01:36:26;;;;;;;1.50;0.38;;;;;;;7.98;96.77;100348.47;5032206;28;97861;-30
2022/11/24 01:38:52;;;;;;;0.63;0.35;;;;;;;7.95;96.83;100351.34;5032498;27;96525;-30
2022/11/24 01:41:23;;;;;;;5.53;1.15;;;;;;;7.96;96.70;100350.38;5035591;28;96808;-31
2022/11/24 01:43:49;;;;;;;0.65;0.30;;;;;;;7.96;96.65;100363.88;5016506;28;100745;-30
2022/11/24 01:46:44;;;;;;;2.30;0.47;;;;;;;7.97;96.58;100371.88;5016993;28;100902;-31
2022/11/24 01:49:16;;;;;;;9.05;0.90;;;;;;;7.97;96.42;100365.63;5035625;28;96467;-30
2022/11/24 01:51:53;;;;;;;0.47;0.30;;;;;;;7.97;96.48;100363.78;5017209;28;96725;-30
2022/11/24 01:54:23;;;;;;;7.10;0.60;;;;;;;7.97;96.40;100366.47;5035395;28;97525;-31
2022/11/24 01:56:53;;;;;;;1.23;0.52;;;;;;;7.98;96.54;100370.03;5016863;28;100905;-31
2022/11/24 01:59:19;;;;;;;6.93;0.88;;;;;;;7.98;96.45;100370.03;5016994;28;96580;-30
2022/11/24 02:01:50;;;;;;;6.88;1.35;;;;;;;7.99;96.44;100372.66;5017430;28;96897;-32
2022/11/24 02:04:22;;;;;;;0.98;0.43;;;;;;;7.95;96.49;100381.03;5016917;28;100933;-30
2022/11/24 02:06:49;;;;;;;4.15;0.90;;;;;;;7.97;96.45;100371.88;5016703;28;101024;-31
2022/11/24 02:09:32;;;;;;;0.93;0.35;;;;;;;7.99;96.51;100375.34;5016316;28;97205;-30
2022/11/24 02:11:58;;;;;;;;;;;;;;;7.99;96.24;100378.06;5017217;28;97070;-30
2022/11/24 02:14:24;;;;;;;0.85;0.50;;;;;;;7.98;96.22;100365.50;5034784;28;99479;-30
2022/11/24 02:16:50;;;;;;;2.60;0.55;;;;;;;7.99;96.24;100380.75;5016373;28;100804;-30
2022/11/24 02:19:55;;;;;;;2.80;0.75;;;;;;;7.97;96.59;100371.88;5016410;28;96670;-31
2022/11/24 02:22:32;;;;;;;0.38;0.25;;;;;;;7.94;96.90;100385.56;5034848;28;96775;-31
2022/11/24 02:25:16;;;;;;;0.73;0.10;;;;;;;7.91;96.98;100398.31;5018512;28;101224;-31
2022/11/24 02:27:44;;;;;;;2.35;0.43;;;;;;;7.89;97.03;100395.75;5034833;27;99206;-30
2022/11/24 02:30:10;;;;;;;1.55;0.43;;;;;;;7.83;97.09;100385.28;5033335;28;96721;-30
2022/11/24 02:32:39;;;;;;;6.95;0.77;;;;;;;7.83;97.04;100396.94;5033344;28;96833;-31
2022/11/24 02:35:07;;;;;;;1.92;0.28;;;;;;;7.78;97.27;100388.25;5032599;28;101109;-30
2022/11/24 02:37:32;;;;;;;0.45;0.30;;;;;;;7.76;97.21;100400.09;5033133;28;101883;-30
2022/11/24 02:39:58;;;;;;;0.77;0.32;;;;;;;7.71;97.10;100394.94;5034351;27;96654;-31
2022/11/24 02:42:25;;;;;;;3.78;0.28;;;;;;;7.70;97.05;100387.84;5034480;27;96782;-30
2022/11/24 02:44:54;;;;;;;1.33;0.20;;;;;;;7.69;97.18;100387.91;5033029;28;100951;-31
2022/11/24 02:47:20;;;;;;;1.33;0.50;;;;;;;7.66;97.28;100388.97;5034277;27;97276;-31
2022/11/24 02:49:45;;;;;;;0.57;0.20;;;;;;;7.66;97.26;100389.81;5034062;27;96401;-30
2022/11/24 02:52:10;;;;;;;0.75;0.15;;;;;;;7.62;97.42;100385.56;5034845;27;96928;-30
2022/11/24 02:54:36;;;;;;;0.05;0.00;;;;;;;7.66;97.42;100400.59;5034393;27;97380;-30
2022/11/24 02:57:01;;;;;;;0.30;0.10;;;;;;;7.67;97.10;100414.94;5034372;27;97945;-31
2022/11/24 02:59:26;;;;;;;0.05;0.03;;;;;;;7.64;97.08;100421.38;5033864;27;96651;-31
2022/11/24 03:01:52;;;;;;;1.02;0.35;;;;;;;7.65;96.97;100425.84;5034723;27;96756;-30
2022/11/24 03:04:17;;;;;;;0.10;0.10;;;;;;;7.64;96.91;100426.78;5034083;27;97399;-32
2022/11/24 03:06:42;;;;;;;0.17;0.10;;;;;;;7.67;96.83;100433.81;5033870;27;98693;-30
2022/11/24 03:09:09;;;;;;;1.08;0.20;;;;;;;7.66;96.88;100432.09;5033926;27;96669;-31
2022/11/24 03:11:34;;;;;;;3.83;0.50;;;;;;;7.66;96.79;100432.94;5032693;28;96917;-30
2022/11/24 03:14:00;;;;;;;1.45;0.40;;;;;;;7.68;97.11;100440.97;5034022;27;97892;-30
2022/11/24 03:16:25;;;;;;;3.25;0.93;;;;;;;7.68;97.27;100438.28;5034204;28;97339;-30
2022/11/24 03:18:51;;;;;;;1.52;0.50;;;;;;;7.71;97.03;100446.19;5034130;27;96614;-31
2022/11/24 03:21:16;;;;;;;3.33;0.50;;;;;;;7.72;97.00;100441.66;5034087;28;96838;-31
2022/11/24 03:23:42;;;;;;;0.90;0.45;;;;;;;7.73;96.79;100438.88;5032867;28;99304;-30
2022/11/24 03:26:13;;;;;;;4.25;0.47;;;;;;;7.77;96.93;100434.16;5033490;27;97789;-30
2022/11/24 03:28:39;;;;;;;1.53;0.27;;;;;;;7.80;96.87;100434.00;5015543;28;96679;-30
2022/11/24 03:31:05;;;;;;;0.88;0.40;;;;;;;7.82;96.71;100445.59;5015544;28;96855;-30
2022/11/24 03:33:31;;;;;;;4.65;1.05;;;;;;;7.84;96.74;100449.03;5015366;28;101111;-31
2022/11/24 03:35:57;;;;;;;0.68;0.38;;;;;;;7.83;96.91;100453.56;5033473;28;99156;-30
2022/11/24 03:38:22;;;;;;;1.02;0.40;;;;;;;7.84;96.77;100457.13;5033683;28;96575;-32
2022/11/24 03:40:48;;;;;;;5.07;0.85;;;;;;;7.85;96.81;100453.50;5034078;28;96704;-30
2022/11/24 03:43:13;;;;;;;2.50;0.77;;;;;;;7.86;96.85;100456.09;5033499;28;97391;-30
2022/11/24 03:45:39;;;;;;;1.08;0.45;;;;;;;7.87;96.86;100463.22;5033458;28;97447;-31
2022/11/24 03:48:05;;;;;;;4.22;0.95;;;;;;;7.89;96.79;100457.75;5014764;28;97039;-30
2022/11/24 03:50:31;;;;;;;1.55;0.98;;;;;;;7.88;96.93;100464.09;4998558;28;97052;-31
2022/11/24 03:52:56;;;;;;;4.90;0.80;;;;;;;7.90;97.03;100480.19;5033011;28;97609;-31
2022/11/24 03:55:21;;;;;;;2.03;0.88;;;;;;;7.87;97.26;100467.75;5033251;28;97939;-30
2022/11/24 03:57:47;;;;;;;2.05;1.23;;;;;;;7.89;97.26;100490.13;5033472;28;96613;-30
2022/11/24 04:00:12;;;;;;;4.88;0.60;;;;;;;7.88;97.37;100491.91;5033369;28;96754;-30
2022/11/24 04:02:38;;;;;;;0.50;0.30;;;;;;;7.90;97.50;100499.94;5032181;27;97988;-30
2022/11/24 04:05:04;;;;;;;8.18;0.70;;;;;;;7.85;97.35;100496.63;5033927;28;97390;-31
2022/11/24 04:07:30;;;;;;;9.82;0.93;;;;;;;7.84;97.64;100511.06;5014773;28;97613;-30
2022/11/24 04:09:55;;;;;;;0.60;0.40;;;;;;;7.84;97.61;100506.56;5033162;28;96721;-31
2022/11/24 04:15:05;;;;;;;1.35;0.30;;;;;;;7.78;97.47;100517.66;5032312;28;97049;-30
2022/11/24 04:17:30;;;;;;;1.33;0.60;;;;;;;7.75;97.39;100527.75;5032923;28;96540;-30
2022/11/24 04:19:56;;;;;;;1.23;0.65;;;;;;;7.71;97.61;100528.88;5032260;28;110972;-31
2022/11/24 04:22:21;;;;;;;0.88;0.35;;;;;;;7.64;97.63;100534.59;5033189;28;97262;-30
2022/11/24 04:24:46;;;;;;;0.85;0.22;;;;;;;7.65;98.00;100543.53;5032682;27;97671;-31
2022/11/24 04:27:11;;;;;;;0.10;0.10;;;;;;;7.63;97.76;100545.47;5032882;28;103817;-30
2022/11/24 04:29:37;;;;;;;0.55;0.55;;;;;;;7.61;98.03;100553.63;5032938;28;96784;-30
2022/11/24 04:32:02;;;;;;;1.55;0.17;;;;;;;7.57;98.01;100565.53;5032643;28;99638;-30
2022/11/24 04:34:28;;;;;;;2.60;0.38;;;;;;;7.50;98.18;100556.03;5032737;28;97809;-30
2022/11/24 04:36:53;;;;;;;0.40;0.10;;;;;;;7.51;98.17;100557.78;5032051;28;107747;-31
2022/11/24 04:39:18;;;;;;;0.75;0.28;;;;;;;7.51;97.68;100568.56;5032854;28;96768;-30
2022/11/24 04:41:45;;;;;;;0.60;0.05;;;;;;;7.45;97.83;100555.41;5032829;28;102879;-31
2022/11/24 04:44:11;;;;;;;0.70;0.28;;;;;;;7.45;97.61;100569.75;5014238;28;100950;-31
2022/11/24 04:46:37;;;;;;;0.30;0.22;;;;;;;7.42;97.78;100569.91;5032267;28;96714;-30
2022/11/24 04:49:02;;;;;;;0.68;0.35;;;;;;;7.41;97.82;100576.28;5014174;28;97174;-30
2022/11/24 04:51:27;;;;;;;0.00;0.00;;;;;;;7.41;97.87;100580.75;5032118;28;111092;-30
2022/11/24 04:53:53;;;;;;;3.63;0.45;;;;;;;7.39;97.70;100585.41;5032828;28;97900;-30
2022/11/24 04:56:18;;;;;;;2.85;0.20;;;;;;;7.35;97.61;100589.19;5032098;28;108355;-30
2022/11/24 04:58:47;;;;;;;0.00;0.00;;;;;;;7.34;97.89;100592.81;5032421;28;97654;-30
2022/11/24 05:01:13;;;;;;;0.45;0.08;;;;;;;7.31;97.72;100593.00;5013573;28;100741;-31
2022/11/24 05:03:39;;;;;;;0.00;0.00;;;;;;;7.30;97.75;100597.50;5032010;28;97339;-30
2022/11/24 05:06:05;;;;;;;0.55;0.20;;;;;;;7.29;97.95;100601.13;5032457;28;96496;-31
2022/11/24 05:08:30;;;;;;;1.08;0.13;;;;;;;7.26;98.17;100600.44;5013930;28;96790;-30
2022/11/24 05:10:55;;;;;;;1.13;0.10;;;;;;;7.25;98.61;100601.41;5032036;28;97975;-30
2022/11/24 05:13:21;;;;;;;0.30;0.13;;;;;;;7.28;98.52;100612.00;5031731;28;107330;-30
2022/11/24 05:15:46;;;;;;;0.00;0.00;;;;;;;7.32;98.53;100619.00;5031878;28;96830;-30
2022/11/24 05:18:14;;;;;;;0.25;0.15;;;;;;;7.32;98.53;100622.56;5032849;28;96821;-30
2022/11/24 05:20:40;;;;;;;0.45;0.10;;;;;;;7.30;98.87;100626.28;5031930;28;98049;-30
2022/11/24 05:23:07;;;;;;;0.75;0.38;;;;;;;7.32;98.72;100632.47;5013688;28;99576;-30
2022/11/24 05:25:35;;;;;;;0.10;0.10;;;;;;;7.34;98.96;100636.81;5020317;28;96943;-31
2022/11/24 05:28:02;;;;;;;0.30;0.20;;;;;;;7.35;98.81;100643.06;5032163;27;96759;-30
2022/11/24 05:30:28;;;;;;;0.95;0.43;;;;;;;7.34;98.82;100644.00;5030361;28;101280;-30
2022/11/24 05:32:53;;;;;;;0.20;0.20;;;;;;;7.33;99.24;100648.53;5030352;28;100860;-31
2022/11/24 05:35:20;;;;;;;1.08;0.43;;;;;;;7.34;99.13;100646.72;5032275;28;96635;-30
2022/11/24 05:37:46;;;;;;;0.90;0.50;;;;;;;7.32;99.38;100654.88;5030609;28;96761;-30
2022/11/24 05:40:12;;;;;;;1.38;0.63;;;;;;;7.30;99.40;100651.41;5030390;28;100826;-31
2022/11/24 05:42:39;;;;;;;0.88;0.55;;;;;;;7.32;99.70;100654.88;5031897;27;99362;-31
2022/11/24 05:45:26;;;;;;;0.60;0.22;;;;;;;7.33;99.47;100655.75;5031984;27;96421;-31
2022/11/24 05:47:52;;;;;;;3.90;0.68;;;;;;;7.30;99.68;100664.88;5031841;27;96858;-30
2022/11/24 05:50:19;;;;;;;0.68;0.40;;;;;;;7.30;99.81;100662.16;5031213;27;97997;-30
2022/11/24 05:52:45;;;;;;;1.70;0.70;;;;;;;7.32;99.59;100662.09;5030127;28;101021;-31
2022/11/24 05:55:13;;;;;;;0.52;0.40;;;;;;;7.32;99.54;100680.97;5030389;28;96855;-30
2022/11/24 05:57:38;;;;;;;0.93;0.43;;;;;;;7.30;99.48;100672.09;5030348;28;96784;-31
2022/11/24 06:00:06;;;;;;;2.03;0.55;;;;;;;7.31;99.43;100679.19;5031266;27;98959;-31
2022/11/24 06:02:31;;;;;;;3.92;0.70;;;;;;;7.31;99.53;100676.50;5031560;28;97876;-30
2022/11/24 06:04:56;;;;;;;0.93;0.80;;;;;;;7.32;99.60;100678.28;5031792;27;96578;-31
2022/11/24 06:07:21;;;;;;;1.10;0.57;;;;;;;7.32;99.54;100680.97;5031295;28;111338;-32
2022/11/24 06:09:47;;;;;;;1.13;0.60;;;;;;;7.28;99.24;100680.22;5031092;28;112893;-30
2022/11/24 06:12:13;;;;;;;1.92;0.70;;;;;;;7.28;99.28;100695.53;5030906;27;99561;-30
2022/11/24 06:14:38;;;;;;;0.43;0.38;;;;;;;7.23;99.09;100702.00;5029356;28;97723;-31
2022/11/24 06:17:04;;;;;;;0.47;0.25;;;;;;;7.21;99.45;100701.22;5031265;27;96742;-30
2022/11/24 06:19:30;;;;;;;0.47;0.38;;;;;;;7.22;99.47;100711.06;5029887;28;100702;-30
2022/11/24 06:21:55;;;;;;;0.95;0.63;;;;;;;7.21;99.25;100713.81;5031481;27;97718;-32
2022/11/24 06:24:21;;;;;;;0.25;0.13;;;;;;;7.19;99.40;100713.03;5030783;27;96619;-30
2022/11/24 06:26:46;;;;;;;0.93;0.25;;;;;;;7.19;99.22;100719.28;5034539;28;96701;-31
2022/11/24 06:29:11;;;;;;;8.20;0.80;;;;;;;7.20;99.40;100726.41;5034353;28;97942;-30
2022/11/24 06:31:37;;;;;;;1.08;0.60;;;;;;;7.23;99.37;100728.94;5034695;28;99373;-32
2022/11/24 06:34:06;;;;;;;1.88;0.55;;;;;;;7.20;99.69;100737.19;5034725;28;97568;-30
2022/11/24 06:36:31;;;;;;;0.73;0.43;;;;;;;7.21;99.30;100736.22;5034450;28;96789;-30
2022/11/24 06:38:56;;;;;;;2.65;0.95;;;;;;;7.19;99.74;100738.13;5033905;28;98378;-30
2022/11/24 06:41:22;;;;;;;0.73;0.60;;;;;;;7.21;99.74;100743.44;5034172;28;108156;-30
2022/11/24 06:43:47;;;;;;;0.98;0.55;;;;;;;7.19;100.00;100745.34;5033916;28;96639;-30
2022/11/24 06:46:13;;;;;;;1.65;0.65;;;;;;;7.22;100.00;100753.25;5034082;28;116566;-30
2022/11/24 06:48:39;;;;;;;1.00;0.65;;;;;;;7.20;99.93;100755.19;5032760;28;109078;-30
2022/11/24 06:51:07;;;;;;;2.38;0.77;;;;;;;7.20;100.00;100763.25;5034222;28;103178;-30
2022/11/24 06:53:37;;;;;;;7.32;0.98;;;;;;;7.24;99.93;100781.00;5016253;28;96759;-30
2022/11/24 06:56:08;;;;;;;0.82;0.75;;;;;;;7.22;99.80;100773.03;5016629;28;96635;-30
2022/11/24 06:58:33;;;;;;;1.40;0.80;;;;;;;7.23;100.00;100776.56;5015790;28;100790;-30
2022/11/24 07:00:59;;;;;;;0.52;0.52;;;;;;;7.26;100.00;100775.56;5034224;28;97960;-31
2022/11/24 07:03:24;;;;;;;2.13;0.82;;;;;;;7.26;100.00;100783.63;5033273;28;111033;-30
2022/11/24 07:05:56;;;;;;;2.03;0.85;;;;;;;7.29;100.00;100796.94;5032437;28;96905;-31
2022/11/24 07:08:21;;;;;;;1.70;0.93;;;;;;;7.30;99.72;100804.09;5031246;28;99457;-31
2022/11/24 07:10:46;;;;;;;2.30;0.75;;;;;;;7.30;100.00;100801.41;5031440;28;98054;-31
2022/11/24 07:13:11;;;;;;;6.20;1.10;;;;;;;7.30;100.00;100806.78;5032339;28;96928;-33
2022/11/24 07:15:37;;;;;;;7.65;0.65;;;;;;;7.29;100.00;100802.34;5031750;28;100593;-32
2022/11/24 07:18:02;;;;;;;2.85;0.57;;;;;;;7.30;100.00;100812.19;5031538;28;109298;-31
2022/11/24 07:20:27;;;;;;;1.52;0.60;;;;;;;7.32;100.00;100823.75;5032814;28;97284;-32
2022/11/24 07:22:56;;;;;;;0.38;0.22;;;;;;;7.33;100.00;100831.75;5034410;28;96543;-31
2022/11/24 07:25:23;;;;;;;0.00;0.00;;;;;;;7.31;100.00;100819.31;5020932;28;96985;-30
2022/11/24 07:27:48;;;;;;;2.50;0.98;;;;;;;7.32;100.00;100824.63;5031797;28;101325;-31
2022/11/24 07:30:14;;;;;;;2.53;0.70;;;;;;;7.31;100.00;100825.56;5033560;28;98461;-32
2022/11/24 07:32:39;;;;;;;0.60;0.40;;;;;;;7.28;100.00;100824.84;5033529;27;96666;-30
2022/11/24 07:35:05;;;;;;;1.27;0.32;;;;;;;7.27;100.00;100832.06;5033396;28;108755;-30
2022/11/24 07:37:30;;;;;;;1.23;0.57;;;;;;;7.28;100.00;100839.19;5030693;27;101331;-31
2022/11/24 07:39:56;;;;;;;1.00;0.38;;;;;;;7.28;99.93;100841.88;5032860;27;106743;-30
2022/11/24 07:42:21;;;;;;;3.95;0.85;;;;;;;7.28;100.00;100854.47;5033218;28;108495;-31
2022/11/24 07:44:46;;;;;;;1.55;0.17;;;;;;;7.25;100.00;100860.91;5033601;28;106573;-31
2022/11/24 07:47:12;;;;;;;3.75;0.50;;;;;;;7.27;100.00;100856.31;5033308;27;99295;-31
2022/11/24 07:49:37;;;;;;;0.57;0.30;;;;;;;7.27;100.00;100867.09;5033453;27;98357;-30
2022/11/24 07:52:03;;;;;;;1.15;0.47;;;;;;;7.27;100.00;100875.16;5032108;28;117371;-31
2022/11/24 07:54:29;;;;;;;0.50;0.20;;;;;;;7.28;99.69;100878.72;5033182;27;96861;-31
2022/11/24 07:56:55;;;;;;;1.00;0.60;;;;;;;7.26;99.84;100889.56;5031943;28;101106;-30
2022/11/24 07:59:20;;;;;;;3.13;0.90;;;;;;;7.23;99.71;100885.19;5033188;27;98909;-31
2022/11/24 08:01:46;;;;;;;2.20;0.70;;;;;;;7.23;99.78;100892.41;5033139;27;96520;-30
2022/11/24 08:04:11;;;;;;;1.08;0.52;;;;;;;7.30;99.99;100895.69;5033192;28;96764;-31
2022/11/24 08:06:36;;;;;;;2.70;0.63;;;;;;;7.31;100.00;100900.13;5033006;28;99324;-30
2022/11/24 08:09:02;;;;;;;0.82;0.52;;;;;;;7.33;99.99;100901.81;5033204;28;103590;-31
2022/11/24 08:11:30;;;;;;;0.70;0.47;;;;;;;7.35;99.96;100901.75;5033141;27;96505;-30
2022/11/24 08:13:55;;;;;;;3.30;0.68;;;;;;;7.36;99.88;100909.72;5032926;27;96849;-30
2022/11/24 08:16:21;;;;;;;2.20;0.30;;;;;;;7.37;99.64;100911.50;5032373;28;99767;-32
2022/11/24 08:18:54;;;;;;;1.42;0.65;;;;;;;7.38;99.63;100913.22;5031455;28;101216;-30
2022/11/24 08:21:21;;;;;;;0.28;0.25;;;;;;;7.37;99.92;100919.59;5032856;28;96512;-31
2022/11/24 08:23:47;;;;;;;1.38;0.35;;;;;;;7.36;99.83;100919.66;5032905;28;96807;-30
2022/11/24 08:26:16;;;;;;;0.57;0.38;;;;;;;7.42;99.74;100930.16;5032609;27;97444;-31
2022/11/24 08:28:43;;;;;;;0.10;0.10;;;;;;;7.40;99.72;100934.72;5014486;28;101242;-31
2022/11/24 08:31:17;;;;;;;0.10;0.00;;;;;;;7.42;99.80;100936.41;5014765;28;96550;-30
2022/11/24 08:33:43;;;;;;;1.67;0.75;;;;;;;7.43;99.74;100939.97;5033011;28;96659;-30
2022/11/24 08:36:11;;;;;;;1.88;0.45;;;;;;;7.45;99.66;100935.38;5032258;28;99221;-31
2022/11/24 08:38:37;;;;;;;0.10;0.10;;;;;;;7.47;99.76;100940.72;5014350;28;100937;-30
2022/11/24 08:41:08;;;;;;;3.65;0.55;;;;;;;7.48;99.64;100947.84;5032337;28;96650;-30
2022/11/24 08:43:33;;;;;;;1.17;0.30;;;;;;;7.49;99.39;100950.47;5032734;28;96813;-30
2022/11/24 08:46:06;;;;;;;0.82;0.50;;;;;;;7.50;100.00;100952.22;5032711;28;97781;-30
2022/11/24 08:48:32;;;;;;;1.38;0.35;;;;;;;7.51;99.49;100959.38;5032073;27;97861;-31
2022/11/24 08:51:04;;;;;;;2.45;0.43;;;;;;;7.51;99.93;100963.84;5014300;28;96559;-30
2022/11/24 08:53:29;;;;;;;;;;;;;;;7.56;99.69;100967.25;5014791;28;96809;-31
2022/11/24 08:55:59;;;;;;;0.30;0.22;;;;;;;7.56;99.67;100961.84;5032525;28;98476;-30
2022/11/24 08:58:24;;;;;;;0.10;0.10;;;;;;;7.61;99.76;100968.75;5014518;28;101115;-30
2022/11/24 09:00:49;;;;;;;1.65;0.60;;;;;;;7.63;99.38;100966.88;5032514;28;96628;-30
2022/11/24 09:03:15;;;;;;;1.48;0.40;;;;;;;7.65;99.79;100964.06;5014278;28;96961;-30
2022/11/24 09:05:40;;;;;;;0.38;0.10;;;;;;;7.65;99.21;100978.47;5031792;28;97902;-30
2022/11/24 09:08:05;;;;;;;4.40;0.82;;;;;;;7.68;99.34;100982.81;5032277;28;97298;-30
2022/11/24 09:10:30;;;;;;;0.20;0.20;;;;;;;7.72;99.16;100986.22;5013986;28;96634;-30
2022/11/24 09:12:56;;;;;;;1.23;0.52;;;;;;;7.75;99.23;100986.97;5031997;28;106100;-30
2022/11/24 09:15:21;;;;;;;1.27;0.45;;;;;;;7.81;98.96;100991.19;5031700;28;117289;-30
2022/11/24 09:17:47;;;;;;;1.83;0.80;;;;;;;7.87;98.54;101004.41;5031681;28;99104;-32
2022/11/24 09:20:12;;;;;;;5.68;0.52;;;;;;;7.91;98.71;100999.72;5031944;28;105561;-31
2022/11/24 09:22:39;;;;;;;0.32;0.32;;;;;;;7.97;98.84;101002.13;5032555;28;96721;-31
2022/11/24 09:25:05;;;;;;;2.83;0.28;;;;;;;7.99;98.57;101001.09;5031367;27;99530;-31
2022/11/24 09:27:31;;;;;;;0.22;0.22;;;;;;;8.06;98.50;101018.75;5013792;28;101579;-30
2022/11/24 09:29:56;;;;;;;1.05;0.47;;;;;;;8.08;98.38;101015.97;5031584;28;96586;-32
2022/11/24 09:32:21;;;;;;;0.73;0.35;;;;;;;8.17;98.22;101029.00;5031655;28;96841;-32
2022/11/24 09:34:49;;;;;;;0.82;0.22;;;;;;;8.21;98.02;101036.00;5031443;28;119907;-30
2022/11/24 09:37:14;;;;;;;1.02;0.52;;;;;;;8.26;97.62;101033.09;5013539;28;100986;-30
2022/11/24 09:39:40;;;;;;;2.38;0.55;;;;;;;8.30;97.52;101038.25;5031864;28;97704;-30
2022/11/24 09:42:13;;;;;;;0.75;0.45;;;;;;;8.37;97.33;101046.06;5014042;28;96885;-30
2022/11/24 09:44:57;;;;;;;0.68;0.30;;;;;;;8.43;97.11;101056.56;5013592;28;100821;-30
2022/11/24 09:47:55;;;;;;;9.25;1.17;;;;;;;8.46;96.76;101051.00;5032304;28;97471;-31
2022/11/24 09:50:24;;;;;;;3.22;0.43;;;;;;;8.49;96.44;101059.84;5013641;28;96592;-30
2022/11/24 09:53:02;;;;;;;8.52;0.82;;;;;;;8.57;96.39;101061.28;5013712;28;96771;-30
2022/11/24 09:55:46;;;;;;;6.00;0.80;;;;;;;8.58;96.11;101063.94;5012856;28;100998;-30
2022/11/24 09:58:39;;;;;;;1.13;0.52;;;;;;;8.65;95.73;101069.88;5013562;28;100846;-30
2022/11/24 10:01:38;;;;;;;2.00;0.47;;;;;;;8.68;95.51;101078.72;5033861;28;96501;-31
2022/11/24 10:04:21;;;;;;;7.07;1.13;;;;;;;8.76;95.46;101080.16;5034401;28;96845;-32
2022/11/24 10:06:58;;;;;;;1.90;0.73;;;;;;;8.76;94.80;101075.63;5016758;28;100012;-30
2022/11/24 10:10:14;;;;;;;9.60;0.70;;;;;;;8.84;94.77;101076.13;5016666;28;100786;-32
2022/11/24 10:13:06;;;;;;;2.20;0.80;;;;;;;8.97;94.03;101086.28;5010984;28;96950;-30
2022/11/24 10:15:51;;;;;;;1.90;0.43;;;;;;;9.01;93.98;101088.78;5017025;28;96715;-30
2022/11/24 10:18:22;;;;;;;1.15;0.50;;;;;;;9.14;93.98;101091.69;5016313;28;100850;-30
2022/11/24 10:20:58;;;;;;;8.27;0.83;;;;;;;9.25;94.12;101092.03;5034737;28;97856;-30
2022/11/24 10:23:47;;;;;;;1.70;0.57;;;;;;;9.32;93.37;101092.59;5034159;28;96651;-31
2022/11/24 10:26:37;;;;;;;3.97;0.88;;;;;;;9.34;92.23;101088.84;5029150;28;96813;-30
2022/11/24 10:29:12;;;;;;;2.55;1.25;;;;;;;9.40;92.81;101097.59;5034474;27;99688;-30
2022/11/24 10:31:41;;;;;;;5.15;0.63;;;;;;;9.48;91.62;101089.94;5034501;27;99840;-30
2022/11/24 10:34:17;;;;;;;6.20;0.50;;;;;;;9.55;91.75;101085.94;5033379;28;96494;-30
2022/11/24 10:36:51;;;;;;;1.95;0.70;;;;;;;9.60;91.24;101091.97;5033222;28;96583;-31
2022/11/24 10:39:28;;;;;;;1.48;0.73;;;;;;;9.62;91.60;101090.06;5033089;28;100852;-30
2022/11/24 10:42:10;;;;;;;5.45;1.30;;;;;;;9.63;90.94;101088.22;5033404;28;99890;-30
2022/11/24 10:44:36;;;;;;;4.63;1.02;;;;;;;9.66;91.20;101102.47;5033313;28;96621;-31
2022/11/24 10:47:02;;;;;;;9.95;0.98;;;;;;;9.73;91.13;101095.78;5034624;27;96715;-32
2022/11/24 10:49:31;;;;;;;2.47;0.68;;;;;;;9.77;90.87;101091.06;5032194;28;100369;-34
2022/11/24 10:52:14;;;;;;;1.85;0.50;;;;;;;9.86;90.82;101092.41;5032865;28;101143;-31
2022/11/24 10:54:54;;;;;;;1.67;0.40;;;;;;;9.94;90.61;101093.72;5034632;28;96550;-30
2022/11/24 10:57:29;;;;;;;6.57;1.08;;;;;;;10.05;90.66;101087.72;5034634;27;96819;-31
2022/11/24 10:59:55;;;;;;;3.20;1.17;;;;;;;10.09;90.37;101089.31;5032645;28;101419;-30
2022/11/24 11:02:30;;;;;;;7.15;1.08;;;;;;;10.17;90.19;101091.56;5034099;27;98979;-30
2022/11/24 11:04:56;;;;;;;6.50;1.08;;;;;;;10.24;89.86;101083.97;5032833;28;96738;-30
2022/11/24 11:07:25;;;;;;;3.95;1.08;;;;;;;10.29;89.34;101092.75;5034748;28;96800;-30
2022/11/24 11:10:17;;;;;;;5.72;1.10;;;;;;;10.33;89.59;101086.22;5032583;28;101526;-30
2022/11/24 11:12:42;;;;;;;;;;;;;;;10.38;89.10;101084.97;5032520;28;103226;-30
2022/11/24 11:15:26;;;;;;;3.72;1.10;;;;;;;10.32;88.89;101082.63;5033797;28;96558;-31
2022/11/24 11:17:56;;;;;;;5.70;1.20;;;;;;;10.38;89.03;101092.22;5032555;28;96934;-30
2022/11/24 11:20:30;;;;;;;2.90;0.70;;;;;;;10.48;88.95;101089.88;5032431;28;100916;-31
2022/11/24 11:22:59;;;;;;;1.02;0.45;;;;;;;10.59;88.76;101090.13;5032278;28;103296;-30
2022/11/24 11:25:32;;;;;;;3.15;1.08;;;;;;;10.63;88.79;101089.00;5033426;27;96672;-30
2022/11/24 11:28:10;;;;;;;2.90;0.88;;;;;;;10.68;88.11;101086.00;5034444;28;96497;-30
2022/11/24 11:30:35;;;;;;;10.10;0.95;;;;;;;10.70;88.01;101095.81;5033543;28;99609;-30
2022/11/24 11:33:00;;;;;;;4.38;1.17;;;;;;;10.69;86.96;101085.06;5034035;28;97787;-30
2022/11/24 11:35:30;;;;;;;2.97;0.47;;;;;;;10.66;87.28;101087.94;5033791;28;96754;-30
2022/11/24 11:38:00;;;;;;;2.45;0.65;;;;;;;10.62;87.99;101096.22;5033614;28;96754;-31
2022/11/24 11:40:29;;;;;;;3.42;0.70;;;;;;;10.71;87.48;101091.25;5032961;28;99364;-30